Главная страница
METAR-TAF:

METAR-TAF

Аэропорты :

Инувик, Северо-Западные Территории, Канада

широта: 68-18N, долгота: 133-29W, высота над уровнем моря: 59 м

Текущие метеонаблюдения

Эта сводка был подготовлена 1 час и 2 минут назад, в 17:00 UTC
Ветер 8 Узел от юго-восточный
Температура 0°C
Влажность 55%
Давление 1026 hPa
Видимость: 24.1 км
небольшая облачность на высоте 23000 фута

METAR: CYEV 201700Z 14008KT 15SM FEW230 M00/M08 A3029 RMK CI1 SLP264

Время: 12:02 (18:02 UTC)

Прогноз

Эта сводка был подготовлена 5 часа и 24 минут назад, в 12:38 UTC
Прогноз действительный с 20-го 13 UTC до 21-го 01 UTC
Ветер 8 Узел от восточный
Видимость: 10 км
ясное небо
изменения
С 20-го 15 UTC до 20-го 17 UTC
Ветер 10 Узел от юго-юго-восточный

TAF: CYEV 201238Z 2013/2101 09008KT P6SM SKC BECMG 2015/2017 15010KT RMK NXT FCST BY 201900Z

Метеонаблюдения и прогнозы для более 4000 аэропортов (сводки METAR и TAF).

Имеющиеся станции представлены на карте желтыми и красными точками.

Чтобы увидеть название станции, наведите на нее мышь.

Затем щелкните, чтобы увидеть метеонаблюдения и метеопрогнозы.

Управление картой: чтобы увеличить масштаб, щелкните зеленые кнопки с черным крестиком; чтобы уменьшить масштаб, щелкните зеленую кнопку с тире; для просмотра соседних карт щелкайте зеленые стрелки.


METAR-TAF: